createdAt,value
2019-03-24T00:01:05.652Z,91.53
2019-03-24T00:03:37.597Z,91.48
2019-03-24T00:06:11.714Z,91.48
2019-03-24T00:08:44.768Z,91.48
2019-03-24T00:11:17.961Z,91.64
2019-03-24T00:13:51.867Z,91.68
2019-03-24T00:16:23.800Z,91.63
2019-03-24T00:18:55.899Z,91.61
2019-03-24T00:21:29.958Z,91.57
2019-03-24T00:24:01.913Z,91.44
2019-03-24T00:26:33.885Z,91.43
2019-03-24T00:29:07.938Z,91.38
2019-03-24T00:31:40.970Z,91.54
2019-03-24T00:34:15.725Z,91.55
2019-03-24T00:36:49.020Z,91.52
2019-03-24T00:39:21.973Z,91.73
2019-03-24T00:41:55.903Z,91.80
2019-03-24T00:44:28.685Z,91.98
2019-03-24T00:47:01.031Z,92.17
2019-03-24T00:49:33.828Z,92.26
2019-03-24T00:52:06.883Z,92.40
2019-03-24T00:54:40.051Z,92.57
2019-03-24T00:57:13.993Z,92.70
2019-03-24T00:59:46.099Z,92.85
2019-03-24T01:02:21.820Z,92.97
2019-03-24T01:04:54.931Z,92.99
2019-03-24T01:07:29.479Z,93.11
2019-03-24T01:10:02.106Z,93.26
2019-03-24T01:12:35.021Z,93.43
2019-03-24T01:15:09.357Z,93.53
2019-03-24T01:17:43.352Z,93.61
2019-03-24T01:20:16.955Z,93.71
2019-03-24T01:22:51.139Z,93.83
2019-03-24T01:25:24.095Z,93.98
2019-03-24T01:27:56.260Z,94.19
2019-03-24T01:30:31.819Z,94.48
2019-03-24T01:33:04.552Z,94.67
2019-03-24T01:35:37.191Z,94.82
2019-03-24T01:38:11.245Z,94.87
2019-03-24T01:40:44.923Z,94.96
2019-03-24T01:43:18.199Z,95.27
2019-03-24T01:45:58.525Z,95.38
2019-03-24T01:48:28.281Z,95.70
2019-03-24T01:51:02.198Z,95.81
2019-03-24T01:53:36.271Z,95.89
2019-03-24T01:56:09.147Z,95.94
2019-03-24T01:58:43.255Z,96.01
2019-03-24T02:01:15.331Z,96.21
2019-03-24T02:03:47.219Z,96.38
2019-03-24T02:06:21.086Z,96.47
2019-03-24T02:08:54.429Z,96.41
2019-03-24T02:11:29.870Z,96.39
2019-03-24T02:14:03.349Z,96.40
2019-03-24T02:16:36.396Z,96.50
2019-03-24T02:19:08.817Z,96.52
2019-03-24T02:21:42.187Z,96.68
2019-03-24T02:24:14.595Z,96.80
2019-03-24T02:26:48.486Z,96.81
2019-03-24T02:29:21.319Z,96.88
2019-03-24T02:31:54.257Z,96.87
2019-03-24T02:34:27.261Z,96.89
2019-03-24T02:37:00.437Z,96.89
2019-03-24T02:39:34.428Z,96.92
2019-03-24T02:42:08.411Z,96.96
2019-03-24T02:44:43.039Z,96.99
2019-03-24T02:47:16.026Z,97.11
2019-03-24T02:49:48.992Z,97.13
2019-03-24T02:52:22.565Z,97.25
2019-03-24T02:54:55.418Z,97.29
2019-03-24T02:57:30.043Z,97.35
2019-03-24T03:00:02.603Z,97.34
2019-03-24T03:02:36.541Z,97.41
2019-03-24T03:05:11.037Z,97.44
2019-03-24T03:07:43.619Z,97.63
2019-03-24T03:10:16.282Z,97.54
2019-03-24T03:12:50.965Z,97.65
2019-03-24T03:15:24.765Z,97.74
2019-03-24T03:18:00.078Z,97.71
2019-03-24T03:20:33.680Z,97.82
2019-03-24T03:23:05.750Z,97.85
2019-03-24T03:25:37.733Z,97.93
2019-03-24T03:28:10.832Z,98.06
2019-03-24T03:30:43.975Z,98.31
2019-03-24T03:33:17.771Z,98.31
2019-03-24T03:35:50.810Z,98.40
2019-03-24T03:38:22.653Z,98.52
2019-03-24T03:40:54.841Z,98.62
2019-03-24T03:43:27.793Z,98.70
2019-03-24T03:46:01.907Z,98.80
2019-03-24T03:48:35.825Z,99.39
2019-03-24T03:51:10.174Z,99.57
2019-03-24T03:53:43.272Z,99.47
2019-03-24T03:56:15.233Z,99.14
2019-03-24T03:58:47.166Z,99.14
2019-03-24T04:01:20.844Z,99.18
2019-03-24T04:03:53.962Z,99.12
2019-03-24T04:06:28.016Z,99.13
2019-03-24T04:08:59.978Z,98.83
2019-03-24T04:11:31.809Z,98.70
2019-03-24T04:14:05.899Z,98.47
2019-03-24T04:16:38.854Z,98.52
2019-03-24T04:19:13.593Z,99.10
2019-03-24T04:21:45.957Z,99.43
2019-03-24T04:24:17.797Z,99.90
2019-03-24T04:26:50.887Z,100.00
2019-03-24T04:29:24.048Z,100.00
2019-03-24T04:31:58.101Z,100.00
2019-03-24T04:34:31.155Z,100.00
2019-03-24T04:37:04.974Z,100.00
2019-03-24T04:39:39.160Z,100.00
2019-03-24T04:42:12.001Z,100.00
2019-03-24T04:44:46.192Z,100.00
2019-03-24T04:47:18.065Z,100.00
2019-03-24T04:49:50.786Z,100.00
2019-03-24T04:52:24.641Z,100.00
2019-03-24T04:54:57.084Z,100.00
2019-03-24T04:57:31.116Z,100.00
2019-03-24T05:00:04.138Z,100.00
2019-03-24T05:02:38.081Z,100.00
2019-03-24T05:05:12.309Z,100.00
2019-03-24T05:07:45.620Z,100.00
2019-03-24T05:10:28.037Z,100.00
2019-03-24T05:13:02.249Z,100.00
2019-03-24T05:15:35.416Z,100.00
2019-03-24T05:18:09.046Z,100.00
2019-03-24T05:20:42.473Z,100.00
2019-03-24T05:23:15.230Z,100.00
2019-03-24T05:25:49.320Z,100.00
2019-03-24T05:28:21.159Z,100.00
2019-03-24T05:30:53.711Z,100.00
2019-03-24T05:33:27.275Z,100.00
2019-03-24T05:35:59.372Z,100.00
2019-03-24T05:38:31.488Z,100.00
2019-03-24T05:41:04.732Z,100.00
2019-03-24T05:43:40.978Z,100.00
2019-03-24T05:46:14.824Z,99.90
2019-03-24T05:48:48.243Z,99.22
2019-03-24T05:51:21.546Z,99.19
2019-03-24T05:53:57.881Z,99.50
2019-03-24T05:56:29.822Z,99.85
2019-03-24T05:59:03.421Z,100.00
2019-03-24T06:01:36.408Z,100.00
2019-03-24T06:04:08.375Z,100.00
2019-03-24T06:06:41.554Z,100.00
2019-03-24T06:09:15.007Z,100.00
2019-03-24T06:11:51.280Z,100.00
2019-03-24T06:14:25.316Z,100.00
2019-03-24T06:16:57.464Z,100.00
2019-03-24T06:19:29.363Z,100.00
2019-03-24T06:22:02.478Z,100.00
2019-03-24T06:24:36.379Z,99.62
2019-03-24T06:27:09.586Z,99.15
2019-03-24T06:29:43.465Z,99.36
2019-03-24T06:32:15.431Z,98.89
2019-03-24T06:34:48.621Z,98.26
2019-03-24T06:37:21.437Z,97.56
2019-03-24T06:39:53.523Z,97.01
2019-03-24T06:42:25.381Z,96.59
2019-03-24T06:44:58.637Z,96.52
2019-03-24T06:47:32.512Z,96.74
2019-03-24T06:50:06.029Z,96.51
2019-03-24T06:52:39.533Z,96.48
2019-03-24T06:55:13.916Z,95.77
2019-03-24T06:57:46.662Z,95.83
2019-03-24T07:00:20.645Z,94.82
2019-03-24T07:02:53.522Z,94.81
2019-03-24T07:05:25.792Z,94.96
2019-03-24T07:08:00.550Z,94.52
2019-03-24T07:10:34.553Z,94.48
2019-03-24T07:13:08.608Z,94.11
2019-03-24T07:15:41.877Z,94.44
2019-03-24T07:18:15.350Z,94.71
2019-03-24T07:20:49.469Z,94.44
2019-03-24T07:23:22.572Z,93.96
2019-03-24T07:25:56.895Z,93.57
2019-03-24T07:28:29.758Z,93.46
2019-03-24T07:31:03.660Z,92.57
2019-03-24T07:33:36.814Z,91.91
2019-03-24T07:36:10.719Z,90.62
2019-03-24T07:38:43.767Z,90.39
2019-03-24T07:41:15.810Z,91.07
2019-03-24T07:43:48.727Z,89.61
2019-03-24T07:46:22.537Z,87.94
2019-03-24T07:48:55.732Z,87.94
2019-03-24T07:51:28.993Z,87.54
2019-03-24T07:54:04.242Z,87.95
2019-03-24T07:56:38.876Z,86.43
2019-03-24T07:59:10.746Z,86.82
2019-03-24T08:01:43.759Z,85.81
2019-03-24T08:04:19.974Z,85.66
2019-03-24T08:06:53.766Z,86.95
2019-03-24T08:09:27.837Z,85.40
2019-03-24T08:12:01.328Z,82.97
2019-03-24T08:14:34.949Z,83.04
2019-03-24T08:17:08.096Z,83.04
2019-03-24T08:19:41.927Z,81.57
2019-03-24T08:22:15.124Z,79.96
2019-03-24T08:24:46.995Z,80.33
2019-03-24T08:27:18.987Z,80.59
2019-03-24T08:29:52.943Z,81.18
2019-03-24T08:32:27.011Z,79.32
2019-03-24T08:35:00.945Z,78.87
2019-03-24T08:37:33.943Z,80.06
2019-03-24T08:40:10.039Z,79.48
2019-03-24T08:42:44.124Z,77.28
2019-03-24T08:45:26.418Z,75.39
2019-03-24T08:48:00.433Z,73.40
2019-03-24T08:50:34.015Z,73.51
2019-03-24T08:53:07.559Z,75.26
2019-03-24T08:55:42.071Z,75.26
2019-03-24T08:58:14.154Z,74.84
2019-03-24T09:00:48.328Z,73.39
2019-03-24T09:03:20.328Z,73.39
2019-03-24T09:05:55.111Z,72.30
2019-03-24T09:08:29.292Z,72.36
2019-03-24T09:11:10.284Z,72.67
2019-03-24T09:13:48.161Z,70.80
2019-03-24T09:16:26.552Z,70.53
2019-03-24T09:19:05.641Z,70.42
2019-03-24T09:21:41.587Z,69.12
2019-03-24T09:24:20.527Z,70.29
2019-03-24T09:26:54.318Z,68.69
2019-03-24T09:29:29.280Z,67.95
2019-03-24T09:32:06.460Z,66.00
2019-03-24T09:34:40.505Z,69.76
2019-03-24T09:37:13.651Z,68.09
2019-03-24T09:39:48.706Z,69.15
2019-03-24T09:42:21.481Z,66.66
2019-03-24T09:44:53.470Z,66.64
2019-03-24T09:47:26.647Z,67.64
2019-03-24T09:49:59.412Z,66.71
2019-03-24T09:52:33.777Z,66.69
2019-03-24T09:55:07.190Z,68.45
2019-03-24T09:57:39.440Z,67.97
2019-03-24T10:00:12.130Z,66.32
2019-03-24T10:02:45.231Z,65.13
2019-03-24T10:05:18.290Z,64.83
2019-03-24T10:07:50.585Z,62.93
2019-03-24T10:10:24.742Z,62.41
2019-03-24T10:13:01.081Z,63.98
2019-03-24T10:15:55.833Z,62.60
2019-03-24T10:18:34.253Z,63.25
2019-03-24T10:21:10.590Z,63.37
2019-03-24T10:23:43.366Z,64.24
2019-03-24T10:26:15.575Z,63.12
2019-03-24T10:28:50.168Z,64.43
2019-03-24T10:31:23.689Z,63.23
2019-03-24T10:33:57.712Z,63.89
2019-03-24T10:36:32.256Z,63.51
2019-03-24T10:39:08.614Z,65.48
2019-03-24T10:41:43.026Z,65.17
2019-03-24T10:44:15.275Z,65.22
2019-03-24T10:46:48.681Z,65.21
2019-03-24T10:49:25.021Z,63.69
2019-03-24T10:51:55.639Z,64.28
2019-03-24T10:54:35.246Z,62.98
2019-03-24T10:57:08.693Z,62.62
2019-03-24T10:59:43.769Z,62.85
2019-03-24T11:02:15.699Z,61.55
2019-03-24T11:04:49.642Z,60.87
2019-03-24T11:07:21.770Z,63.85
2019-03-24T11:09:53.659Z,63.32
2019-03-24T11:12:26.150Z,62.18
2019-03-24T11:15:00.169Z,61.71
2019-03-24T11:17:33.667Z,62.66
2019-03-24T11:20:06.751Z,63.85
2019-03-24T11:22:39.731Z,61.30
2019-03-24T11:25:12.613Z,62.65
2019-03-24T11:27:47.995Z,60.33
2019-03-24T11:30:25.104Z,60.06
2019-03-24T11:32:58.775Z,60.03
2019-03-24T11:35:31.006Z,60.98
2019-03-24T11:38:05.250Z,57.54
2019-03-24T11:40:48.368Z,58.95
2019-03-24T11:43:27.771Z,58.92
2019-03-24T11:46:02.657Z,58.20
2019-03-24T11:48:36.067Z,58.26
2019-03-24T11:51:10.058Z,56.06
2019-03-24T11:53:44.072Z,57.10
2019-03-24T11:56:18.181Z,55.78
2019-03-24T11:58:51.266Z,58.17
2019-03-24T12:01:26.303Z,56.76
2019-03-24T12:04:01.042Z,56.46
2019-03-24T12:06:36.359Z,57.49
2019-03-24T12:09:13.678Z,55.78
2019-03-24T12:11:48.161Z,55.77
2019-03-24T12:14:30.686Z,53.43
2019-03-24T12:17:07.907Z,54.48
2019-03-24T12:19:42.196Z,55.64
2019-03-24T12:22:15.307Z,55.36
2019-03-24T12:24:48.274Z,55.71
2019-03-24T12:27:21.199Z,55.10
2019-03-24T12:29:55.186Z,55.34
2019-03-24T12:32:36.717Z,56.90
2019-03-24T12:35:14.172Z,55.31
2019-03-24T12:37:47.247Z,54.30
2019-03-24T12:40:21.302Z,55.35
2019-03-24T12:42:55.033Z,54.56
2019-03-24T12:45:28.330Z,53.81
2019-03-24T12:48:01.475Z,54.44
2019-03-24T12:50:37.559Z,52.80
2019-03-24T12:53:16.540Z,53.15
2019-03-24T12:55:52.649Z,53.59
2019-03-24T12:58:37.191Z,52.64
2019-03-24T13:01:11.908Z,53.76
2019-03-24T13:03:46.219Z,52.84
2019-03-24T13:06:19.303Z,53.29
2019-03-24T13:08:53.683Z,53.75
2019-03-24T13:11:28.345Z,52.88
2019-03-24T13:14:04.185Z,52.24
2019-03-24T13:16:38.470Z,51.40
2019-03-24T13:19:19.397Z,53.45
2019-03-24T13:21:55.372Z,51.58
2019-03-24T13:24:28.859Z,52.03
2019-03-24T13:27:04.994Z,49.99
2019-03-24T13:29:41.864Z,51.06
2019-03-24T13:32:15.789Z,49.62
2019-03-24T13:34:49.528Z,50.25
2019-03-24T13:37:22.413Z,49.32
2019-03-24T13:39:56.337Z,50.06
2019-03-24T13:42:30.385Z,51.09
2019-03-24T13:45:03.269Z,50.65
2019-03-24T13:47:37.420Z,50.71
2019-03-24T13:50:10.341Z,48.86
2019-03-24T13:52:47.488Z,48.58
2019-03-24T13:55:22.943Z,49.16
2019-03-24T13:58:01.389Z,48.41
2019-03-24T14:00:34.332Z,47.54
2019-03-24T14:03:11.085Z,48.45
2019-03-24T14:05:43.160Z,47.09
2019-03-24T14:08:18.711Z,48.92
2019-03-24T14:10:52.620Z,49.43
2019-03-24T14:13:26.734Z,49.07
2019-03-24T14:16:03.377Z,48.58
2019-03-24T14:18:35.660Z,48.34
2019-03-24T14:21:08.903Z,48.19
2019-03-24T14:23:43.000Z,48.58
2019-03-24T14:26:20.767Z,47.98
2019-03-24T14:28:55.021Z,45.02
2019-03-24T14:31:29.680Z,44.86
2019-03-24T14:34:03.759Z,43.61
2019-03-24T14:36:37.898Z,42.68
2019-03-24T14:39:10.832Z,43.66
2019-03-24T14:41:44.922Z,43.68
2019-03-24T14:44:17.850Z,41.38
2019-03-24T14:46:50.588Z,42.71
2019-03-24T14:49:24.737Z,42.38
2019-03-24T14:52:00.050Z,41.79
2019-03-24T14:54:36.212Z,42.36
2019-03-24T14:57:08.910Z,42.47
2019-03-24T14:59:41.898Z,43.05
2019-03-24T15:02:15.937Z,42.40
2019-03-24T15:04:48.714Z,43.20
2019-03-24T15:07:24.318Z,42.83
2019-03-24T15:10:00.023Z,43.94
2019-03-24T15:12:32.069Z,43.35
2019-03-24T15:15:07.775Z,42.44
2019-03-24T15:17:39.756Z,44.29
2019-03-24T15:20:14.029Z,42.18
2019-03-24T15:22:49.965Z,42.71
2019-03-24T15:25:24.997Z,43.84
2019-03-24T15:27:57.908Z,43.74
2019-03-24T15:30:30.834Z,43.69
2019-03-24T15:33:04.912Z,41.68
2019-03-24T15:35:38.036Z,41.53
2019-03-24T15:38:11.867Z,41.84
2019-03-24T15:40:45.523Z,42.16
2019-03-24T15:43:19.198Z,42.56
2019-03-24T15:45:53.026Z,43.33
2019-03-24T15:48:25.994Z,42.89
2019-03-24T15:51:01.810Z,43.06
2019-03-24T15:53:36.024Z,43.29
2019-03-24T15:56:10.153Z,43.61
2019-03-24T15:58:47.166Z,43.72
2019-03-24T16:01:19.298Z,43.26
2019-03-24T16:03:54.162Z,43.89
2019-03-24T16:06:26.998Z,44.30
2019-03-24T16:09:01.076Z,45.35
2019-03-24T16:11:34.169Z,45.48
2019-03-24T16:14:08.088Z,46.21
2019-03-24T16:16:40.953Z,46.25
2019-03-24T16:19:15.024Z,47.23
2019-03-24T16:21:49.169Z,47.94
2019-03-24T16:24:22.224Z,48.41
2019-03-24T16:26:55.017Z,49.18
2019-03-24T16:29:27.530Z,50.60
2019-03-24T16:32:00.179Z,50.36
2019-03-24T16:34:34.654Z,50.84
2019-03-24T16:37:07.283Z,51.18
2019-03-24T16:39:41.132Z,52.06
2019-03-24T16:42:14.151Z,52.78
2019-03-24T16:44:48.582Z,53.07
2019-03-24T16:47:26.954Z,53.31
2019-03-24T16:50:10.230Z,53.97
2019-03-24T16:52:57.504Z,54.26
2019-03-24T16:55:34.053Z,54.62
2019-03-24T16:58:06.250Z,55.12
2019-03-24T17:00:39.128Z,55.88
2019-03-24T17:03:15.655Z,55.97
2019-03-24T17:05:50.231Z,56.44
2019-03-24T17:08:23.328Z,56.92
2019-03-24T17:10:58.272Z,57.64
2019-03-24T17:13:30.315Z,57.82
2019-03-24T17:16:04.192Z,58.40
2019-03-24T17:18:37.295Z,59.42
2019-03-24T17:21:11.329Z,59.86
2019-03-24T17:23:45.317Z,60.81
2019-03-24T17:26:19.270Z,61.91
2019-03-24T17:28:52.939Z,62.06
2019-03-24T17:31:25.420Z,62.47
2019-03-24T17:33:59.577Z,63.85
2019-03-24T17:36:33.638Z,63.97
2019-03-24T17:39:07.685Z,64.83
2019-03-24T17:41:40.606Z,64.88
2019-03-24T17:44:13.403Z,65.58
2019-03-24T17:46:46.422Z,66.00
2019-03-24T17:49:19.508Z,66.61
2019-03-24T17:52:00.389Z,67.19
2019-03-24T17:54:25.455Z,66.91
2019-03-24T17:56:58.619Z,67.16
2019-03-24T17:59:32.627Z,67.54
2019-03-24T18:02:13.886Z,67.82
2019-03-24T18:04:39.469Z,68.12
2019-03-24T18:07:14.986Z,68.40
2019-03-24T18:09:49.545Z,68.21
2019-03-24T18:12:22.019Z,68.03
2019-03-24T18:14:54.471Z,68.11
2019-03-24T18:17:27.629Z,68.10
2019-03-24T18:20:01.458Z,68.20
2019-03-24T18:22:33.708Z,68.43
2019-03-24T18:25:06.667Z,68.84
2019-03-24T18:27:39.417Z,69.51
2019-03-24T18:30:13.229Z,69.93
2019-03-24T18:32:46.530Z,70.21
2019-03-24T18:35:19.647Z,70.57
2019-03-24T18:37:55.160Z,70.97
2019-03-24T18:40:27.436Z,71.52
2019-03-24T18:43:01.717Z,71.44
2019-03-24T18:45:36.520Z,71.33
2019-03-24T18:48:08.846Z,71.65
2019-03-24T18:50:43.770Z,72.53
2019-03-24T18:53:15.985Z,72.33
2019-03-24T18:55:49.024Z,72.52
2019-03-24T18:58:22.791Z,73.06
2019-03-24T19:00:55.886Z,73.36
2019-03-24T19:03:27.999Z,73.51
2019-03-24T19:06:00.975Z,74.09
2019-03-24T19:08:37.304Z,74.92
2019-03-24T19:11:10.010Z,75.31
2019-03-24T19:13:42.979Z,75.75
2019-03-24T19:16:16.020Z,76.79
2019-03-24T19:18:49.782Z,76.88
2019-03-24T19:21:23.925Z,77.89
2019-03-24T19:23:57.910Z,77.79
2019-03-24T19:26:30.836Z,77.73
2019-03-24T19:29:02.823Z,78.14
2019-03-24T19:31:35.550Z,78.82
2019-03-24T19:34:08.934Z,79.26
2019-03-24T19:36:44.312Z,79.53
2019-03-24T19:39:16.233Z,79.60
2019-03-24T19:41:49.969Z,79.61
2019-03-24T19:44:23.211Z,80.32
2019-03-24T19:46:57.530Z,80.94
2019-03-24T19:49:31.180Z,82.02
2019-03-24T19:52:05.074Z,83.16
2019-03-24T19:54:38.627Z,83.87
2019-03-24T19:57:11.108Z,83.47
2019-03-24T19:59:46.662Z,83.15
2019-03-24T20:02:20.163Z,83.15
2019-03-24T20:04:55.222Z,83.40
2019-03-24T20:07:28.135Z,83.62
2019-03-24T20:10:02.118Z,83.60
2019-03-24T20:12:37.775Z,83.79
2019-03-24T20:15:10.381Z,84.50
2019-03-24T20:17:43.179Z,84.94
2019-03-24T20:20:16.394Z,84.84
2019-03-24T20:22:56.285Z,84.94
2019-03-24T20:25:27.318Z,85.47
2019-03-24T20:27:59.300Z,85.60
2019-03-24T20:30:31.852Z,85.45
2019-03-24T20:33:04.283Z,86.32
2019-03-24T20:35:38.236Z,86.88
2019-03-24T20:38:13.239Z,86.86
2019-03-24T20:40:46.326Z,86.41
2019-03-24T20:43:19.320Z,86.30
2019-03-24T20:45:52.140Z,86.29
2019-03-24T20:48:25.326Z,86.39
2019-03-24T20:50:57.146Z,86.70
2019-03-24T20:53:30.364Z,87.04
2019-03-24T20:56:03.158Z,87.44
2019-03-24T20:58:36.363Z,87.61
2019-03-24T21:01:10.084Z,88.65
2019-03-24T21:03:42.393Z,88.65
2019-03-24T21:06:16.441Z,89.22
2019-03-24T21:08:49.846Z,89.74
2019-03-24T21:11:22.370Z,89.66
2019-03-24T21:13:55.046Z,89.33
2019-03-24T21:16:29.334Z,89.08
2019-03-24T21:19:03.456Z,88.58
2019-03-24T21:21:36.627Z,89.17
2019-03-24T21:24:10.335Z,89.28
2019-03-24T21:26:45.096Z,89.15
2019-03-24T21:29:16.933Z,90.03
2019-03-24T21:31:49.490Z,89.94
2019-03-24T21:34:22.195Z,89.78
2019-03-24T21:36:55.470Z,89.47
2019-03-24T21:39:29.377Z,89.53
2019-03-24T21:42:02.400Z,90.08
2019-03-24T21:44:38.449Z,90.38
2019-03-24T21:47:10.516Z,90.60
2019-03-24T21:49:44.067Z,91.37
2019-03-24T21:52:16.311Z,91.90
2019-03-24T21:54:50.528Z,92.32
2019-03-24T21:57:22.456Z,92.78
2019-03-24T21:59:55.271Z,93.05
2019-03-24T22:02:28.598Z,92.32
2019-03-24T22:05:01.738Z,91.84
2019-03-24T22:07:35.696Z,91.48
2019-03-24T22:10:11.248Z,91.87
2019-03-24T22:12:43.648Z,92.86
2019-03-24T22:15:16.353Z,93.02
2019-03-24T22:17:49.572Z,92.75
2019-03-24T22:20:23.647Z,92.38
2019-03-24T22:22:56.858Z,92.14
2019-03-24T22:25:30.650Z,92.00
2019-03-24T22:28:03.884Z,92.05
2019-03-24T22:30:37.640Z,92.12
2019-03-24T22:33:10.557Z,92.21
2019-03-24T22:35:42.780Z,92.05
2019-03-24T22:38:17.832Z,92.02
2019-03-24T22:40:51.597Z,92.15
2019-03-24T22:43:26.702Z,92.15
2019-03-24T22:45:58.877Z,92.12
2019-03-24T22:48:32.794Z,92.53
2019-03-24T22:51:06.806Z,92.84
2019-03-24T22:53:39.818Z,92.91
2019-03-24T22:56:13.892Z,93.33
2019-03-24T22:58:47.875Z,93.53
2019-03-24T23:01:21.460Z,93.49
2019-03-24T23:03:53.951Z,93.49
2019-03-24T23:06:26.840Z,93.99
2019-03-24T23:09:00.800Z,94.27
2019-03-24T23:11:32.809Z,94.64
2019-03-24T23:14:05.856Z,95.17
2019-03-24T23:16:37.999Z,95.49
2019-03-24T23:19:11.030Z,95.79
2019-03-24T23:21:44.990Z,95.97
2019-03-24T23:24:16.882Z,96.30
2019-03-24T23:26:50.894Z,96.42
2019-03-24T23:29:22.900Z,96.48
2019-03-24T23:31:56.223Z,96.58
2019-03-24T23:34:28.912Z,96.89
2019-03-24T23:37:02.850Z,96.93
2019-03-24T23:39:35.196Z,97.00
2019-03-24T23:42:07.215Z,97.15
2019-03-24T23:44:42.042Z,97.27
2019-03-24T23:47:14.883Z,97.52
2019-03-24T23:49:48.040Z,97.77
2019-03-24T23:52:20.081Z,97.79
2019-03-24T23:54:54.330Z,97.55
2019-03-24T23:57:29.243Z,97.55
